createdAt,value
2023-03-13T00:01:55.035Z,9.40
2023-03-13T00:04:21.670Z,9.40
2023-03-13T00:06:48.367Z,9.30
2023-03-13T00:09:16.216Z,9.40
2023-03-13T00:11:44.573Z,9.40
2023-03-13T00:14:11.536Z,9.40
2023-03-13T00:16:39.497Z,9.50
2023-03-13T00:19:07.723Z,9.40
2023-03-13T00:21:35.158Z,9.50
2023-03-13T00:24:02.123Z,9.30
2023-03-13T00:26:30.359Z,9.40
2023-03-13T00:28:57.154Z,9.40
2023-03-13T00:31:26.165Z,9.40
2023-03-13T00:33:55.363Z,9.40
2023-03-13T00:36:24.574Z,9.40
2023-03-13T00:38:52.364Z,9.50
2023-03-13T00:41:22.670Z,9.50
2023-03-13T00:43:49.856Z,9.50
2023-03-13T00:46:18.701Z,9.50
2023-03-13T00:48:46.376Z,9.50
2023-03-13T00:51:14.479Z,9.50
2023-03-13T00:53:42.362Z,9.40
2023-03-13T00:56:11.862Z,9.50
2023-03-13T00:58:40.764Z,9.60
2023-03-13T01:01:22.752Z,9.60
2023-03-13T01:03:55.614Z,9.60
2023-03-13T01:06:26.279Z,9.50
2023-03-13T01:08:53.682Z,9.40
2023-03-13T01:11:23.335Z,9.40
2023-03-13T01:14:00.755Z,9.40
2023-03-13T01:16:29.583Z,9.40
2023-03-13T01:19:00.206Z,9.50
2023-03-13T01:21:27.711Z,9.40
2023-03-13T01:23:56.239Z,9.40
2023-03-13T01:26:23.707Z,9.40
2023-03-13T01:28:50.594Z,9.50
2023-03-13T01:31:21.142Z,9.50
2023-03-13T01:33:55.195Z,9.50
2023-03-13T01:36:22.724Z,9.50
2023-03-13T01:38:51.814Z,9.50
2023-03-13T01:41:19.946Z,9.60
2023-03-13T01:43:47.366Z,9.60
2023-03-13T01:46:18.318Z,9.60
2023-03-13T01:49:07.462Z,9.50
2023-03-13T01:51:55.127Z,9.50
2023-03-13T01:54:32.664Z,9.40
2023-03-13T01:57:08.707Z,9.40
2023-03-13T01:59:47.454Z,9.40
2023-03-13T02:02:15.766Z,9.50
2023-03-13T02:04:48.709Z,9.40
2023-03-13T02:07:19.522Z,9.40
2023-03-13T02:09:51.285Z,9.40
2023-03-13T02:12:33.748Z,9.40
2023-03-13T02:15:05.928Z,9.40
2023-03-13T02:17:35.190Z,9.50
2023-03-13T02:20:02.858Z,9.50
2023-03-13T02:22:58.001Z,9.50
2023-03-13T02:25:24.610Z,9.50
2023-03-13T02:28:05.055Z,9.60
2023-03-13T02:30:34.658Z,9.50
2023-03-13T02:33:03.454Z,9.50
2023-03-13T02:35:31.035Z,9.50
2023-03-13T02:38:05.870Z,9.40
2023-03-13T02:40:38.735Z,9.40
2023-03-13T02:43:12.392Z,9.60
2023-03-13T02:45:39.918Z,9.60
2023-03-13T02:48:09.272Z,9.50
2023-03-13T02:50:37.991Z,9.50
2023-03-13T02:53:07.704Z,9.50
2023-03-13T02:55:41.710Z,9.50
2023-03-13T02:58:10.608Z,9.40
2023-03-13T03:00:37.998Z,9.40
2023-03-13T03:03:04.654Z,9.40
2023-03-13T03:05:31.305Z,9.40
2023-03-13T03:07:58.397Z,9.40
2023-03-13T03:10:25.655Z,9.40
2023-03-13T03:12:52.449Z,9.40
2023-03-13T03:15:19.107Z,9.50
2023-03-13T03:17:47.749Z,9.50
2023-03-13T03:20:14.664Z,9.50
2023-03-13T03:22:43.215Z,9.50
2023-03-13T03:25:10.192Z,9.60
2023-03-13T03:27:37.317Z,9.50
2023-03-13T03:30:07.521Z,9.40
2023-03-13T03:32:35.912Z,9.50
2023-03-13T03:35:02.692Z,9.70
2023-03-13T03:37:29.374Z,9.60
2023-03-13T03:39:56.845Z,9.60
2023-03-13T03:42:23.621Z,9.60
2023-03-13T03:44:50.362Z,9.60
2023-03-13T03:47:18.073Z,9.50
2023-03-13T03:49:47.155Z,9.50
2023-03-13T03:52:15.005Z,9.50
2023-03-13T03:54:43.302Z,9.60
2023-03-13T03:57:09.995Z,9.50
2023-03-13T03:59:37.824Z,9.40
2023-03-13T04:02:07.836Z,9.50
2023-03-13T04:04:35.082Z,9.50
2023-03-13T04:07:06.438Z,9.50
2023-03-13T04:09:34.066Z,9.60
2023-03-13T04:12:02.527Z,9.60
2023-03-13T04:14:33.693Z,9.60
2023-03-13T04:17:04.419Z,9.70
2023-03-13T04:19:31.178Z,9.60
2023-03-13T04:21:58.412Z,9.40
2023-03-13T04:24:25.092Z,9.50
2023-03-13T04:26:51.860Z,9.50
2023-03-13T04:29:18.820Z,9.50
2023-03-13T04:31:51.396Z,9.50
2023-03-13T04:34:31.679Z,9.60
2023-03-13T04:37:18.062Z,9.70
2023-03-13T04:39:58.812Z,9.70
2023-03-13T04:42:41.456Z,9.70
2023-03-13T04:45:28.015Z,9.60
2023-03-13T04:48:14.718Z,9.70
2023-03-13T04:50:52.375Z,9.60
2023-03-13T04:53:27.292Z,9.70
2023-03-13T04:56:32.473Z,9.60
2023-03-13T04:59:25.937Z,9.70
2023-03-13T05:02:05.617Z,9.60
2023-03-13T05:04:45.505Z,9.60
2023-03-13T05:07:21.261Z,9.60
2023-03-13T05:10:06.480Z,9.60
2023-03-13T05:12:43.138Z,9.60
2023-03-13T05:15:39.042Z,9.60
2023-03-13T05:18:34.586Z,9.60
2023-03-13T05:21:09.529Z,9.80
2023-03-13T05:23:36.197Z,9.60
2023-03-13T05:26:22.799Z,9.60
2023-03-13T05:29:03.601Z,9.60
2023-03-13T05:31:38.636Z,9.60
2023-03-13T05:34:17.378Z,9.60
2023-03-13T05:37:05.310Z,9.60
2023-03-13T05:39:51.884Z,9.70
2023-03-13T05:42:26.868Z,9.50
2023-03-13T05:45:09.221Z,9.50
2023-03-13T05:47:49.765Z,9.50
2023-03-13T05:50:35.102Z,9.50
2023-03-13T05:53:01.888Z,9.40
2023-03-13T05:55:37.318Z,9.50
2023-03-13T05:58:18.057Z,9.60
2023-03-13T06:01:09.838Z,9.50
2023-03-13T06:03:49.157Z,9.40
2023-03-13T06:06:17.489Z,9.40
2023-03-13T06:08:47.819Z,9.40
2023-03-13T06:11:14.754Z,9.60
2023-03-13T06:13:41.551Z,9.50
2023-03-13T06:16:19.391Z,9.60
2023-03-13T06:18:48.113Z,9.50
2023-03-13T06:21:15.022Z,9.50
2023-03-13T06:23:42.237Z,9.50
2023-03-13T06:26:08.829Z,9.50
2023-03-13T06:28:35.437Z,9.50
2023-03-13T06:31:06.855Z,9.60
2023-03-13T06:33:33.969Z,9.60
2023-03-13T06:36:01.829Z,9.60
2023-03-13T06:38:29.733Z,9.60
2023-03-13T06:40:56.591Z,9.60
2023-03-13T06:43:23.473Z,9.60
2023-03-13T06:45:50.680Z,9.70
2023-03-13T06:48:19.030Z,9.70
2023-03-13T06:50:45.831Z,9.70
2023-03-13T06:53:17.885Z,9.70
2023-03-13T06:55:44.838Z,9.60
2023-03-13T06:58:28.824Z,9.70
2023-03-13T07:00:58.413Z,9.70
2023-03-13T07:03:25.273Z,9.70
2023-03-13T07:05:59.175Z,9.80
2023-03-13T07:08:26.279Z,9.80
2023-03-13T07:10:54.694Z,9.80
2023-03-13T07:13:22.120Z,9.80
2023-03-13T07:15:49.097Z,9.80
2023-03-13T07:18:15.846Z,9.90
2023-03-13T07:20:42.619Z,9.80
2023-03-13T07:23:09.316Z,9.80
2023-03-13T07:25:36.034Z,9.90
2023-03-13T07:28:02.633Z,9.90
2023-03-13T07:30:29.391Z,9.90
2023-03-13T07:32:56.099Z,9.90
2023-03-13T07:35:22.705Z,10.00
2023-03-13T07:37:49.312Z,10.00
2023-03-13T07:40:16.128Z,10.10
2023-03-13T07:42:42.878Z,10.10
2023-03-13T07:45:09.865Z,10.10
2023-03-13T07:47:36.671Z,10.10
2023-03-13T07:50:03.598Z,10.10
2023-03-13T07:52:30.297Z,10.10
2023-03-13T07:54:56.879Z,10.10
2023-03-13T07:57:23.541Z,10.20
2023-03-13T07:59:50.530Z,10.20
2023-03-13T08:02:17.336Z,10.30
2023-03-13T08:04:44.047Z,10.30
2023-03-13T08:07:11.854Z,10.30
2023-03-13T08:09:38.542Z,10.30
2023-03-13T08:12:05.408Z,10.40
2023-03-13T08:14:32.002Z,10.50
2023-03-13T08:16:58.764Z,10.50
2023-03-13T08:19:25.536Z,10.50
2023-03-13T08:21:52.125Z,10.50
2023-03-13T08:24:18.704Z,10.50
2023-03-13T08:26:45.381Z,10.60
2023-03-13T08:29:14.848Z,10.60
2023-03-13T08:31:47.855Z,10.60
2023-03-13T08:34:16.249Z,10.70
2023-03-13T08:36:43.407Z,10.70
2023-03-13T08:39:13.464Z,10.70
2023-03-13T08:41:42.980Z,10.70
2023-03-13T08:44:15.168Z,10.80
2023-03-13T08:46:42.075Z,10.80
2023-03-13T08:49:09.363Z,10.80
2023-03-13T08:51:36.567Z,10.90
2023-03-13T08:54:04.288Z,10.80
2023-03-13T08:56:32.241Z,10.90
2023-03-13T08:59:01.147Z,10.90
2023-03-13T09:01:33.986Z,10.90
2023-03-13T09:04:03.966Z,10.90
2023-03-13T09:06:32.275Z,11.00
2023-03-13T09:08:59.032Z,11.00
2023-03-13T09:11:25.925Z,11.00
2023-03-13T09:13:52.857Z,11.10
2023-03-13T09:16:22.263Z,11.10
2023-03-13T09:18:50.145Z,11.10
2023-03-13T09:21:22.467Z,11.10
2023-03-13T09:23:49.736Z,11.10
2023-03-13T09:26:17.754Z,11.20
2023-03-13T09:28:44.759Z,11.20
2023-03-13T09:31:14.755Z,11.20
2023-03-13T09:33:42.503Z,11.20
2023-03-13T09:36:10.052Z,11.30
2023-03-13T09:38:37.552Z,11.30
2023-03-13T09:41:31.901Z,11.20
2023-03-13T09:44:02.171Z,11.30
2023-03-13T09:46:48.225Z,11.30
2023-03-13T09:49:37.756Z,11.30
2023-03-13T09:52:26.598Z,11.30
2023-03-13T09:55:03.943Z,11.30
2023-03-13T09:57:48.736Z,11.40
2023-03-13T10:00:29.189Z,11.40
2023-03-13T10:03:13.350Z,11.40
2023-03-13T10:05:46.248Z,11.40
2023-03-13T10:08:18.793Z,11.50
2023-03-13T10:11:11.066Z,11.50
2023-03-13T10:13:55.093Z,11.50
2023-03-13T10:16:30.854Z,11.60
2023-03-13T10:18:59.597Z,11.50
2023-03-13T10:21:36.993Z,11.50
2023-03-13T10:24:16.927Z,11.50
2023-03-13T10:26:43.605Z,11.60
2023-03-13T10:29:24.348Z,11.60
2023-03-13T10:32:00.081Z,11.70
2023-03-13T10:34:29.096Z,11.70
2023-03-13T10:36:59.180Z,11.70
2023-03-13T10:39:28.741Z,11.70
2023-03-13T10:42:20.832Z,11.80
2023-03-13T10:44:47.450Z,12.00
2023-03-13T10:47:14.936Z,12.00
2023-03-13T10:49:55.311Z,12.10
2023-03-13T10:52:49.139Z,12.30
2023-03-13T10:55:23.807Z,12.40
2023-03-13T10:58:02.331Z,12.50
2023-03-13T11:00:38.782Z,12.40
2023-03-13T11:03:14.098Z,12.50
2023-03-13T11:05:44.784Z,12.50
2023-03-13T11:08:17.411Z,12.40
2023-03-13T11:10:59.646Z,12.40
2023-03-13T11:13:36.968Z,12.40
2023-03-13T11:16:23.856Z,12.30
2023-03-13T11:19:13.173Z,12.30
2023-03-13T11:21:53.912Z,12.30
2023-03-13T11:24:27.453Z,12.30
2023-03-13T11:27:19.561Z,12.30
2023-03-13T11:30:07.983Z,12.40
2023-03-13T11:32:51.042Z,12.60
2023-03-13T11:35:37.059Z,12.80
2023-03-13T11:38:17.169Z,12.90
2023-03-13T11:40:55.715Z,13.00
2023-03-13T11:43:53.740Z,12.90
2023-03-13T11:46:33.876Z,12.90
2023-03-13T11:49:34.678Z,12.90
2023-03-13T11:52:16.112Z,12.90
2023-03-13T11:55:02.019Z,12.90
2023-03-13T11:57:30.811Z,12.80
2023-03-13T12:00:22.983Z,13.00
2023-03-13T12:03:05.798Z,13.20
2023-03-13T12:05:47.245Z,13.40
2023-03-13T12:08:28.274Z,13.90
2023-03-13T12:11:16.994Z,14.30
2023-03-13T12:13:55.223Z,14.00
2023-03-13T12:16:43.150Z,13.90
2023-03-13T12:19:14.948Z,14.10
2023-03-13T12:21:56.896Z,14.20
2023-03-13T12:24:41.419Z,14.00
2023-03-13T12:27:19.094Z,13.90
2023-03-13T12:29:53.701Z,13.90
2023-03-13T12:32:54.129Z,14.10
2023-03-13T12:35:33.203Z,14.20
2023-03-13T12:38:25.806Z,14.40
2023-03-13T12:41:06.645Z,14.40
2023-03-13T12:43:36.736Z,14.60
2023-03-13T12:46:11.645Z,14.90
2023-03-13T12:49:27.552Z,15.30
2023-03-13T12:52:13.073Z,15.40
2023-03-13T12:54:56.695Z,15.10
2023-03-13T12:57:56.134Z,15.00
2023-03-13T13:00:26.657Z,15.30
2023-03-13T13:03:33.561Z,15.30
2023-03-13T13:06:11.154Z,15.60
2023-03-13T13:08:53.000Z,15.60
2023-03-13T13:11:37.966Z,15.50
2023-03-13T13:14:27.511Z,15.10
2023-03-13T13:17:16.685Z,15.10
2023-03-13T13:19:47.543Z,15.60
2023-03-13T13:22:39.160Z,15.00
2023-03-13T13:25:11.711Z,15.40
2023-03-13T13:27:38.257Z,15.60
2023-03-13T13:30:20.120Z,15.90
2023-03-13T13:32:51.916Z,15.60
2023-03-13T13:35:22.225Z,15.80
2023-03-13T13:37:49.722Z,16.00
2023-03-13T13:40:16.649Z,15.80
2023-03-13T13:42:53.868Z,15.60
2023-03-13T13:45:47.970Z,15.60
2023-03-13T13:48:19.353Z,15.50
2023-03-13T13:51:10.993Z,16.00
2023-03-13T13:53:43.468Z,16.30
2023-03-13T13:56:31.146Z,16.00
2023-03-13T13:59:12.842Z,15.60
2023-03-13T14:01:41.575Z,15.70
2023-03-13T14:04:34.670Z,15.50
2023-03-13T14:07:04.600Z,15.40
2023-03-13T14:09:40.666Z,15.60
2023-03-13T14:12:26.799Z,15.80
2023-03-13T14:15:16.430Z,15.60
2023-03-13T14:18:00.185Z,15.50
2023-03-13T14:20:28.692Z,15.80
2023-03-13T14:23:00.724Z,15.50
2023-03-13T14:25:39.937Z,15.80
2023-03-13T14:28:14.960Z,16.40
2023-03-13T14:30:44.430Z,16.20
2023-03-13T14:33:11.327Z,16.00
2023-03-13T14:35:39.879Z,16.10
2023-03-13T14:38:06.889Z,16.10
2023-03-13T14:40:37.909Z,16.00
2023-03-13T14:43:05.062Z,15.90
2023-03-13T14:45:37.015Z,16.00
2023-03-13T14:48:27.586Z,15.70
2023-03-13T14:51:14.722Z,15.50
2023-03-13T14:54:00.199Z,15.70
2023-03-13T14:56:34.166Z,15.60
2023-03-13T14:59:08.392Z,15.80
2023-03-13T15:01:35.099Z,15.40
2023-03-13T15:04:01.770Z,15.80
2023-03-13T15:06:28.898Z,15.80
2023-03-13T15:09:16.389Z,15.70
2023-03-13T15:11:56.906Z,15.70
2023-03-13T15:14:52.906Z,15.70
2023-03-13T15:17:25.255Z,15.60
2023-03-13T15:19:54.615Z,15.60
2023-03-13T15:22:37.920Z,15.80
2023-03-13T15:25:14.754Z,15.70
2023-03-13T15:27:41.372Z,15.60
2023-03-13T15:30:15.862Z,15.40
2023-03-13T15:32:46.349Z,15.40
2023-03-13T15:35:25.301Z,15.40
2023-03-13T15:37:51.934Z,15.50
2023-03-13T15:40:19.595Z,15.50
2023-03-13T15:42:46.334Z,15.40
2023-03-13T15:45:13.036Z,15.40
2023-03-13T15:47:39.655Z,15.40
2023-03-13T15:50:12.511Z,15.40
2023-03-13T15:52:39.295Z,15.20
2023-03-13T15:55:09.917Z,15.20
2023-03-13T15:57:41.300Z,15.40
2023-03-13T16:00:20.090Z,15.70
2023-03-13T16:02:47.151Z,15.50
2023-03-13T16:05:15.851Z,15.40
2023-03-13T16:07:42.596Z,15.20
2023-03-13T16:10:17.703Z,15.40
2023-03-13T16:12:44.374Z,15.30
2023-03-13T16:15:11.467Z,15.50
2023-03-13T16:17:38.156Z,15.40
2023-03-13T16:20:16.972Z,15.30
2023-03-13T16:22:44.425Z,15.20
2023-03-13T16:25:11.364Z,15.10
2023-03-13T16:27:38.295Z,15.10
2023-03-13T16:30:13.752Z,15.20
2023-03-13T16:32:40.369Z,15.20
2023-03-13T16:35:07.222Z,15.00
2023-03-13T16:37:33.834Z,15.10
2023-03-13T16:40:01.012Z,15.00
2023-03-13T16:42:27.649Z,15.10
2023-03-13T16:44:54.218Z,15.10
2023-03-13T16:47:24.875Z,14.90
2023-03-13T16:49:51.505Z,15.00
2023-03-13T16:52:18.424Z,15.10
2023-03-13T16:54:46.177Z,15.00
2023-03-13T16:57:16.553Z,14.90
2023-03-13T16:59:43.447Z,14.90
2023-03-13T17:02:15.494Z,14.80
2023-03-13T17:04:44.621Z,14.60
2023-03-13T17:07:20.084Z,14.60
2023-03-13T17:09:46.949Z,14.70
2023-03-13T17:12:13.610Z,14.60
2023-03-13T17:14:40.288Z,14.60
2023-03-13T17:17:15.055Z,14.60
2023-03-13T17:19:41.662Z,14.50
2023-03-13T17:22:11.865Z,14.50
2023-03-13T17:24:38.698Z,14.60
2023-03-13T17:27:10.054Z,14.60
2023-03-13T17:29:36.658Z,14.50
2023-03-13T17:32:04.206Z,14.50
2023-03-13T17:34:31.248Z,14.50
2023-03-13T17:37:00.229Z,14.40
2023-03-13T17:39:26.829Z,14.50
2023-03-13T17:41:53.406Z,14.50
2023-03-13T17:44:19.974Z,14.50
2023-03-13T17:46:47.759Z,14.50
2023-03-13T17:49:17.146Z,14.70
2023-03-13T17:51:46.035Z,14.60
2023-03-13T17:54:15.245Z,14.60
2023-03-13T17:56:43.083Z,14.50
2023-03-13T17:59:18.057Z,14.60
2023-03-13T18:01:45.093Z,14.50
2023-03-13T18:04:12.919Z,14.50
2023-03-13T18:06:44.972Z,14.60
2023-03-13T18:09:17.506Z,14.60
2023-03-13T18:11:44.406Z,14.50
2023-03-13T18:14:11.602Z,14.50
2023-03-13T18:16:50.252Z,14.50
2023-03-13T18:19:20.558Z,14.40
2023-03-13T18:21:50.392Z,14.30
2023-03-13T18:24:17.732Z,14.20
2023-03-13T18:26:45.700Z,14.10
2023-03-13T18:29:15.513Z,14.30
2023-03-13T18:31:43.599Z,14.10
2023-03-13T18:34:11.686Z,14.10
2023-03-13T18:36:38.810Z,14.00
2023-03-13T18:39:06.206Z,14.10
2023-03-13T18:41:33.458Z,14.20
2023-03-13T18:44:03.348Z,14.20
2023-03-13T18:46:31.841Z,14.10
2023-03-13T18:49:00.278Z,14.10
2023-03-13T18:51:28.119Z,14.20
2023-03-13T18:53:55.511Z,14.10
2023-03-13T18:56:25.217Z,14.10
2023-03-13T18:58:54.241Z,14.00
2023-03-13T19:01:23.423Z,14.00
2023-03-13T19:03:50.457Z,14.00
2023-03-13T19:06:22.942Z,14.00
2023-03-13T19:08:52.021Z,14.00
2023-03-13T19:11:21.794Z,14.00
2023-03-13T19:13:48.581Z,14.00
2023-03-13T19:16:22.700Z,13.90
2023-03-13T19:18:49.864Z,14.00
2023-03-13T19:21:24.763Z,13.90
2023-03-13T19:23:52.600Z,13.90
2023-03-13T19:26:29.964Z,13.90
2023-03-13T19:28:56.891Z,13.90
2023-03-13T19:31:23.929Z,13.80
2023-03-13T19:33:53.336Z,13.80
2023-03-13T19:36:22.710Z,13.80
2023-03-13T19:38:50.224Z,13.80
2023-03-13T19:41:17.011Z,13.70
2023-03-13T19:43:43.935Z,13.70
2023-03-13T19:46:28.124Z,13.70
2023-03-13T19:48:57.353Z,13.70
2023-03-13T19:51:25.200Z,13.70
2023-03-13T19:53:52.521Z,13.70
2023-03-13T19:56:30.127Z,13.70
2023-03-13T19:59:00.644Z,13.70
2023-03-13T20:01:27.627Z,13.70
2023-03-13T20:03:54.426Z,13.60
2023-03-13T20:06:29.944Z,13.60
2023-03-13T20:08:58.532Z,13.60
2023-03-13T20:11:26.431Z,13.60
2023-03-13T20:13:53.454Z,13.60
2023-03-13T20:16:20.425Z,13.60
2023-03-13T20:18:49.540Z,13.60
2023-03-13T20:21:17.018Z,13.60
2023-03-13T20:23:44.740Z,13.50
2023-03-13T20:26:13.550Z,13.50
2023-03-13T20:28:42.577Z,13.50
2023-03-13T20:31:09.536Z,13.50
2023-03-13T20:33:37.560Z,13.50
2023-03-13T20:36:12.555Z,13.50
2023-03-13T20:38:40.376Z,13.50
2023-03-13T20:41:08.332Z,13.40
2023-03-13T20:43:35.719Z,13.40
2023-03-13T20:46:02.611Z,13.40
2023-03-13T20:48:29.293Z,13.40
2023-03-13T20:50:58.319Z,13.40
2023-03-13T20:53:25.804Z,13.40
2023-03-13T20:55:54.337Z,13.40
2023-03-13T20:58:21.213Z,13.40
2023-03-13T21:00:48.560Z,13.30
2023-03-13T21:03:17.247Z,13.30
2023-03-13T21:05:44.964Z,13.30
2023-03-13T21:08:11.910Z,13.30
2023-03-13T21:10:42.201Z,13.30
2023-03-13T21:13:10.396Z,13.30
2023-03-13T21:15:37.458Z,13.30
2023-03-13T21:18:04.681Z,13.30
2023-03-13T21:20:31.545Z,13.30
2023-03-13T21:22:58.215Z,13.30
2023-03-13T21:25:24.988Z,13.30
2023-03-13T21:27:51.663Z,13.30
2023-03-13T21:30:20.603Z,13.30
2023-03-13T21:32:47.831Z,13.30
2023-03-13T21:35:15.303Z,13.20
2023-03-13T21:37:42.749Z,13.20
2023-03-13T21:40:10.063Z,13.30
2023-03-13T21:42:37.487Z,13.30
2023-03-13T21:45:06.421Z,13.20
2023-03-13T21:47:36.684Z,13.20
2023-03-13T21:50:06.281Z,13.20
2023-03-13T21:52:38.098Z,13.20
2023-03-13T21:55:08.520Z,13.20
2023-03-13T21:57:35.248Z,13.20
2023-03-13T22:00:02.196Z,13.20
2023-03-13T22:02:37.457Z,13.30
2023-03-13T22:05:05.424Z,13.20
2023-03-13T22:07:32.154Z,13.20
2023-03-13T22:09:58.862Z,13.20
2023-03-13T22:12:25.855Z,13.20
2023-03-13T22:14:53.483Z,13.20
2023-03-13T22:17:21.988Z,13.20
2023-03-13T22:19:49.075Z,13.20
2023-03-13T22:22:17.100Z,13.20
2023-03-13T22:24:43.695Z,13.20
2023-03-13T22:27:10.411Z,13.20
2023-03-13T22:29:37.095Z,13.20
2023-03-13T22:32:04.323Z,13.20
2023-03-13T22:34:31.576Z,13.20
2023-03-13T22:36:58.834Z,13.20
2023-03-13T22:39:25.482Z,13.20
2023-03-13T22:41:52.098Z,13.20
2023-03-13T22:44:18.949Z,13.20
2023-03-13T22:46:45.538Z,13.20
2023-03-13T22:49:12.133Z,13.10
2023-03-13T22:51:38.718Z,13.20
2023-03-13T22:54:05.312Z,13.20
2023-03-13T22:56:31.929Z,13.20
2023-03-13T22:58:58.559Z,13.10
2023-03-13T23:01:26.381Z,13.10
2023-03-13T23:03:52.990Z,13.10
2023-03-13T23:06:22.494Z,13.10
2023-03-13T23:08:49.215Z,13.10
2023-03-13T23:11:16.385Z,13.10
2023-03-13T23:13:43.060Z,13.10
2023-03-13T23:16:11.706Z,13.10
2023-03-13T23:18:39.407Z,13.10
2023-03-13T23:21:08.795Z,13.10
2023-03-13T23:23:35.661Z,13.00
2023-03-13T23:26:07.641Z,13.00
2023-03-13T23:28:35.457Z,13.00
2023-03-13T23:31:29.310Z,13.00
2023-03-13T23:33:56.079Z,13.00
2023-03-13T23:36:22.657Z,12.90
2023-03-13T23:38:50.785Z,12.90
2023-03-13T23:41:18.153Z,12.90
2023-03-13T23:43:45.009Z,12.90
2023-03-13T23:46:21.242Z,12.90
2023-03-13T23:48:47.871Z,12.90
2023-03-13T23:51:14.753Z,12.90
2023-03-13T23:53:43.150Z,12.90
2023-03-13T23:56:11.139Z,12.90
2023-03-13T23:58:38.127Z,12.90
